createdAt,value
2022-12-26T00:05:08.775Z,25.73
2022-12-26T00:07:35.293Z,27.58
2022-12-26T00:10:02.069Z,30.30
2022-12-26T00:12:30.830Z,27.50
2022-12-26T00:14:58.200Z,24.38
2022-12-26T00:17:25.996Z,22.13
2022-12-26T00:19:52.749Z,23.20
2022-12-26T00:22:19.292Z,18.15
2022-12-26T00:24:47.130Z,16.38
2022-12-26T00:27:13.822Z,18.35
2022-12-26T00:29:44.475Z,16.50
2022-12-26T00:32:10.983Z,14.30
2022-12-26T00:34:38.360Z,14.90
2022-12-26T00:37:05.019Z,14.73
2022-12-26T00:39:34.390Z,11.38
2022-12-26T00:42:00.896Z,15.90
2022-12-26T00:44:27.582Z,13.30
2022-12-26T00:46:54.263Z,13.55
2022-12-26T00:49:20.949Z,10.18
2022-12-26T00:51:47.483Z,9.82
2022-12-26T00:54:14.268Z,8.55
2022-12-26T00:56:40.734Z,9.35
2022-12-26T00:59:07.225Z,8.63
2022-12-26T01:01:39.089Z,10.63
2022-12-26T01:04:06.002Z,6.00
2022-12-26T01:06:32.627Z,7.25
2022-12-26T01:08:59.787Z,6.63
2022-12-26T01:11:41.363Z,6.72
2022-12-26T01:14:19.076Z,8.55
2022-12-26T01:16:48.874Z,9.02
2022-12-26T01:19:22.860Z,9.20
2022-12-26T01:21:58.179Z,7.05
2022-12-26T01:24:25.066Z,7.63
2022-12-26T01:26:53.429Z,7.90
2022-12-26T01:29:20.413Z,8.90
2022-12-26T01:31:47.372Z,5.43
2022-12-26T01:34:14.008Z,7.00
2022-12-26T01:36:42.062Z,6.18
2022-12-26T01:39:09.017Z,7.05
2022-12-26T01:41:37.436Z,6.68
2022-12-26T01:44:09.062Z,4.82
2022-12-26T01:47:04.817Z,5.85
2022-12-26T01:49:39.916Z,7.50
2022-12-26T01:52:13.794Z,5.85
2022-12-26T01:54:43.438Z,6.72
2022-12-26T01:57:17.338Z,4.15
2022-12-26T01:59:46.350Z,5.20
2022-12-26T02:02:13.779Z,6.57
2022-12-26T02:05:04.755Z,5.75
2022-12-26T02:07:34.061Z,5.97
2022-12-26T02:10:00.767Z,5.78
2022-12-26T02:18:40.886Z,7.30
2022-12-26T02:22:03.455Z,6.60
2022-12-26T02:24:56.923Z,7.05
2022-12-26T02:28:50.677Z,5.70
2022-12-26T02:31:20.409Z,6.47
2022-12-26T02:34:00.241Z,7.32
2022-12-26T02:36:56.946Z,5.00
2022-12-26T02:39:55.786Z,5.88
2022-12-26T02:42:49.635Z,6.30
2022-12-26T02:45:51.172Z,7.82
2022-12-26T02:48:29.702Z,6.60
2022-12-26T02:51:33.005Z,5.68
2022-12-26T02:54:37.492Z,7.13
2022-12-26T02:57:26.765Z,5.32
2022-12-26T03:00:47.989Z,6.65
2022-12-26T03:03:54.008Z,7.70
2022-12-26T03:07:16.697Z,5.97
2022-12-26T03:10:05.030Z,6.00
2022-12-26T03:13:32.098Z,5.80
2022-12-26T03:16:47.235Z,6.30
2022-12-26T03:19:19.745Z,6.22
2022-12-26T03:21:47.950Z,7.57
2022-12-26T03:24:20.241Z,8.15
2022-12-26T03:26:53.918Z,5.75
2022-12-26T03:29:45.551Z,5.13
2022-12-26T03:32:13.112Z,5.68
2022-12-26T03:34:54.654Z,6.65
2022-12-26T03:37:50.406Z,6.57
2022-12-26T03:40:55.516Z,5.18
2022-12-26T03:43:47.850Z,5.50
2022-12-26T03:46:51.504Z,6.57
2022-12-26T03:49:43.595Z,6.05
2022-12-26T03:52:48.265Z,6.63
2022-12-26T03:56:09.279Z,5.95
2022-12-26T03:59:03.630Z,6.68
2022-12-26T04:01:51.757Z,5.30
2022-12-26T04:04:41.221Z,5.95
2022-12-26T04:07:56.702Z,5.80
2022-12-26T04:10:52.655Z,5.00
2022-12-26T04:13:47.672Z,7.70
2022-12-26T04:16:42.111Z,6.82
2022-12-26T04:19:51.151Z,5.78
2022-12-26T04:23:07.552Z,5.90
2022-12-26T04:25:59.765Z,6.20
2022-12-26T04:28:45.217Z,5.95
2022-12-26T04:31:38.956Z,7.57
2022-12-26T04:34:32.537Z,4.68
2022-12-26T04:37:22.020Z,6.35
2022-12-26T04:40:09.941Z,6.05
2022-12-26T04:42:56.487Z,5.25
2022-12-26T04:45:23.620Z,5.28
2022-12-26T04:48:09.623Z,5.95
2022-12-26T04:50:36.256Z,7.13
2022-12-26T04:53:02.813Z,5.90
2022-12-26T04:55:32.847Z,5.63
2022-12-26T05:00:28.449Z,5.30
2022-12-26T05:03:19.396Z,5.55
2022-12-26T05:06:10.624Z,8.50
2022-12-26T05:09:15.917Z,6.43
2022-12-26T05:11:47.173Z,7.20
2022-12-26T05:14:18.368Z,10.80
2022-12-26T05:17:03.296Z,8.00
2022-12-26T05:19:52.445Z,9.18
2022-12-26T05:22:47.154Z,9.17
2022-12-26T05:25:38.515Z,10.73
2022-12-26T05:28:24.119Z,9.20
2022-12-26T05:30:53.557Z,7.65
2022-12-26T05:33:45.651Z,6.88
2022-12-26T05:36:45.364Z,7.90
2022-12-26T05:39:16.090Z,7.75
2022-12-26T05:41:42.806Z,7.50
2022-12-26T05:44:16.191Z,10.48
2022-12-26T05:46:42.880Z,10.82
2022-12-26T05:49:09.933Z,9.25
2022-12-26T05:51:36.497Z,8.20
2022-12-26T05:54:04.641Z,7.75
2022-12-26T05:56:31.396Z,7.65
2022-12-26T05:59:00.832Z,10.50
2022-12-26T06:01:28.743Z,14.85
2022-12-26T06:03:57.760Z,18.33
2022-12-26T06:06:26.345Z,16.20
2022-12-26T06:08:55.535Z,16.52
2022-12-26T06:11:23.008Z,15.57
2022-12-26T06:13:49.526Z,12.45
2022-12-26T06:16:17.647Z,13.50
2022-12-26T06:18:44.825Z,17.50
2022-12-26T06:21:26.339Z,12.82
2022-12-26T06:23:52.857Z,15.50
2022-12-26T06:26:22.481Z,15.13
2022-12-26T06:28:49.011Z,15.13
2022-12-26T06:31:20.819Z,14.27
2022-12-26T06:33:49.652Z,14.25
2022-12-26T06:36:24.081Z,13.30
2022-12-26T06:38:51.802Z,16.23
2022-12-26T06:41:20.635Z,12.18
2022-12-26T06:43:47.512Z,9.43
2022-12-26T06:46:16.655Z,10.60
2022-12-26T06:48:43.485Z,10.73
2022-12-26T06:51:23.746Z,7.80
2022-12-26T06:53:54.432Z,12.85
2022-12-26T06:56:27.287Z,10.48
2022-12-26T06:59:02.286Z,9.38
2022-12-26T07:01:31.334Z,13.00
2022-12-26T07:03:58.943Z,12.67
2022-12-26T07:07:14.891Z,14.65
2022-12-26T07:09:41.431Z,10.35
2022-12-26T07:12:07.897Z,8.30
2022-12-26T07:14:40.708Z,10.00
2022-12-26T07:17:09.861Z,9.55
2022-12-26T07:19:37.034Z,9.05
2022-12-26T07:22:03.863Z,8.55
2022-12-26T07:24:30.638Z,8.90
2022-12-26T07:26:57.331Z,11.38
2022-12-26T07:29:23.946Z,11.45
2022-12-26T07:31:50.572Z,8.50
2022-12-26T07:34:24.088Z,9.23
2022-12-26T07:36:55.422Z,10.40
2022-12-26T07:39:26.227Z,9.32
2022-12-26T07:41:58.804Z,9.68
2022-12-26T07:44:26.843Z,8.27
2022-12-26T07:46:53.416Z,7.20
2022-12-26T07:49:20.020Z,8.95
2022-12-26T07:51:46.611Z,7.95
2022-12-26T07:54:13.360Z,8.20
2022-12-26T07:56:40.921Z,6.68
2022-12-26T07:59:12.015Z,6.38
2022-12-26T08:01:38.604Z,8.77
2022-12-26T08:04:05.250Z,7.03
2022-12-26T08:06:31.815Z,7.45
2022-12-26T08:11:51.068Z,11.95
2022-12-26T08:14:17.573Z,9.68
2022-12-26T08:16:49.733Z,10.35
2022-12-26T08:19:19.645Z,10.13
2022-12-26T08:21:46.257Z,9.70
2022-12-26T08:24:13.336Z,10.55
2022-12-26T08:26:40.204Z,12.10
2022-12-26T08:29:06.759Z,12.48
2022-12-26T08:31:33.547Z,12.00
2022-12-26T08:34:00.108Z,12.27
2022-12-26T08:36:27.445Z,12.55
2022-12-26T08:38:54.079Z,12.37
2022-12-26T08:41:21.096Z,10.30
2022-12-26T08:44:25.631Z,10.35
2022-12-26T08:46:39.109Z,5.97
2022-12-26T08:49:05.757Z,5.35
2022-12-26T08:51:32.276Z,3.38
2022-12-26T08:53:58.773Z,4.50
2022-12-26T08:56:27.069Z,11.02
2022-12-26T08:58:53.851Z,10.75
2022-12-26T09:01:26.296Z,5.70
2022-12-26T09:03:57.923Z,5.38
2022-12-26T09:06:26.595Z,4.93
2022-12-26T09:08:53.873Z,6.65
2022-12-26T09:11:27.882Z,6.10
2022-12-26T09:13:56.399Z,7.53
2022-12-26T09:16:32.729Z,7.95
2022-12-26T09:19:04.689Z,3.85
2022-12-26T09:21:32.181Z,3.58
2022-12-26T09:28:58.323Z,2.45
2022-12-26T09:35:11.935Z,3.45
2022-12-26T09:38:03.756Z,2.78
2022-12-26T09:40:37.048Z,3.38
2022-12-26T09:44:07.279Z,2.70
2022-12-26T09:47:12.310Z,3.08
2022-12-26T09:49:57.717Z,2.47
2022-12-26T09:53:03.207Z,2.88
2022-12-26T09:55:51.302Z,2.50
2022-12-26T09:58:44.550Z,3.30
2022-12-26T10:17:30.878Z,2.20
2022-12-26T10:25:33.588Z,2.28
2022-12-26T10:29:08.302Z,2.10
2022-12-26T10:31:41.235Z,2.10
2022-12-26T10:34:17.103Z,2.67
2022-12-26T10:37:10.786Z,2.92
2022-12-26T10:39:49.909Z,2.90
2022-12-26T10:42:42.396Z,4.70
2022-12-26T10:45:20.214Z,4.35
2022-12-26T11:25:51.835Z,2.55
2022-12-26T11:35:26.609Z,2.40
2022-12-26T11:37:57.384Z,3.78
2022-12-26T11:41:06.953Z,3.13
2022-12-26T11:43:33.916Z,2.22
2022-12-26T12:22:07.534Z,3.33
2022-12-26T12:25:01.702Z,2.55
2022-12-26T12:27:55.013Z,2.80
2022-12-26T12:30:32.487Z,6.93
2022-12-26T12:33:36.474Z,3.33
2022-12-26T12:36:54.984Z,5.57
2022-12-26T12:39:28.393Z,3.55
2022-12-26T12:42:10.412Z,3.55
2022-12-26T12:45:01.288Z,4.63
2022-12-26T12:47:49.375Z,3.80
2022-12-26T12:50:25.035Z,5.32
2022-12-26T12:52:57.594Z,4.90
2022-12-26T12:55:38.733Z,5.78
2022-12-26T12:58:31.395Z,4.45
